Time;durP1;ratioP1;P1;durP2;ratioP2;P2;SDS_P1;SDS_P2;PMS_P1;PMS_P2;Temp;Humidity;BMP_temperature;BMP_pressure;BME280_temperature;BME280_humidity;BME280_pressure;Samples;Min_cycle;Max_cycle;Signal;HPM_P1;HPM_P2
2022/07/04 00:01:33;;;;;;;7.25;3.70;;;13.70;99.90;;;;;;5035708;28;20102;-66
2022/07/04 00:03:59;;;;;;;4.85;3.58;;;13.70;99.90;;;;;;5056459;28;20498;-66
2022/07/04 00:06:26;;;;;;;7.45;3.83;;;13.70;99.90;;;;;;5059881;28;20041;-65
2022/07/04 00:08:52;;;;;;;7.80;3.60;;;13.70;99.90;;;;;;5066091;28;20384;-65
2022/07/04 00:11:17;;;;;;;8.15;4.22;;;13.70;99.90;;;;;;5055152;28;20047;-66
2022/07/04 00:13:43;;;;;;;9.32;4.30;;;13.60;99.90;;;;;;5058539;28;20131;-66
2022/07/04 00:16:09;;;;;;;16.38;4.30;;;13.60;99.90;;;;;;5056056;28;20039;-66
2022/07/04 00:18:39;;;;;;;8.40;3.90;;;13.60;99.90;;;;;;5068511;28;20045;-65
2022/07/04 00:21:04;;;;;;;7.57;4.30;;;13.60;99.90;;;;;;5050715;28;20394;-66
2022/07/04 00:23:33;;;;;;;11.40;4.15;;;13.70;99.90;;;;;;5064791;28;20033;-66
2022/07/04 00:25:59;;;;;;;8.43;4.40;;;13.70;99.90;;;;;;5061383;28;20037;-66
2022/07/04 00:28:24;;;;;;;6.63;4.20;;;13.70;99.90;;;;;;5060574;28;20041;-67
2022/07/04 00:30:53;;;;;;;9.23;4.03;;;13.70;99.90;;;;;;5071508;28;20073;-67
2022/07/04 00:33:19;;;;;;;6.57;4.35;;;13.60;99.90;;;;;;5065411;28;20069;-66
2022/07/04 00:35:44;;;;;;;13.48;4.65;;;13.70;99.90;;;;;;5054836;28;20474;-66
2022/07/04 00:38:10;;;;;;;8.30;4.63;;;13.60;99.90;;;;;;5059060;28;20513;-66
2022/07/04 00:40:37;;;;;;;6.72;3.95;;;13.60;99.90;;;;;;5044667;28;20052;-67
2022/07/04 00:43:04;;;;;;;7.45;4.60;;;13.60;99.90;;;;;;5061435;28;20102;-67
2022/07/04 00:45:30;;;;;;;6.65;4.10;;;13.60;99.90;;;;;;5058944;28;20051;-66
2022/07/04 00:47:56;;;;;;;8.60;4.50;;;13.60;99.90;;;;;;5051554;28;20036;-67
2022/07/04 00:50:25;;;;;;;11.25;4.38;;;13.50;99.90;;;;;;5061337;28;20509;-65
2022/07/04 00:52:52;;;;;;;9.27;4.47;;;13.50;99.90;;;;;;5073575;28;20060;-66
2022/07/04 00:55:20;;;;;;;6.78;4.00;;;13.50;99.90;;;;;;5058643;28;20052;-66
2022/07/04 00:57:52;;;;;;;6.90;4.15;;;13.50;99.90;;;;;;5057629;28;20033;-67
2022/07/04 01:00:20;;;;;;;10.07;4.40;;;13.40;99.90;;;;;;5063854;28;20482;-66
2022/07/04 01:02:49;;;;;;;9.80;4.07;;;13.40;99.90;;;;;;5064502;28;20596;-66
2022/07/04 01:05:15;;;;;;;7.05;3.97;;;13.40;99.90;;;;;;5064518;28;20052;-66
2022/07/04 01:07:42;;;;;;;9.93;4.45;;;13.40;99.90;;;;;;5062533;28;20036;-65
2022/07/04 01:10:12;;;;;;;7.90;4.25;;;13.40;99.90;;;;;;5060492;28;20044;-65
2022/07/04 01:12:38;;;;;;;7.45;4.28;;;13.40;99.90;;;;;;5064427;28;20044;-66
2022/07/04 01:15:06;;;;;;;8.60;4.03;;;13.40;99.90;;;;;;5068776;28;20056;-66
2022/07/04 01:17:32;;;;;;;7.82;3.90;;;13.40;99.90;;;;;;5054370;28;20036;-66
2022/07/04 01:19:58;;;;;;;9.10;3.75;;;13.40;99.90;;;;;;5065385;28;20125;-66
2022/07/04 01:22:24;;;;;;;7.22;4.10;;;13.40;99.90;;;;;;5062974;28;20041;-66
2022/07/04 01:24:50;;;;;;;10.25;4.05;;;13.30;99.90;;;;;;5046815;28;20056;-66
2022/07/04 01:27:16;;;;;;;6.93;3.78;;;13.30;99.90;;;;;;5059739;28;20048;-65
2022/07/04 01:29:42;;;;;;;7.28;4.60;;;13.30;99.90;;;;;;5066618;28;20049;-66
2022/07/04 01:32:09;;;;;;;11.13;4.63;;;13.30;99.90;;;;;;5063081;28;20539;-67
2022/07/04 01:34:36;;;;;;;13.88;5.03;;;13.20;99.90;;;;;;5068832;28;20463;-66
2022/07/04 01:37:04;;;;;;;8.85;4.53;;;13.30;99.90;;;;;;5060094;28;20131;-66
2022/07/04 01:39:30;;;;;;;11.82;4.85;;;13.20;99.90;;;;;;5062312;28;20443;-67
2022/07/04 01:41:58;;;;;;;7.40;4.40;;;13.20;99.90;;;;;;5063065;28;20738;-66
2022/07/04 01:44:24;;;;;;;9.75;4.57;;;13.20;99.90;;;;;;5059964;28;20043;-66
2022/07/04 01:46:50;;;;;;;6.25;4.30;;;13.30;99.90;;;;;;5046071;28;20039;-65
2022/07/04 01:49:15;;;;;;;11.15;4.45;;;13.20;99.90;;;;;;5067698;28;20033;-66
2022/07/04 01:51:48;;;;;;;8.15;5.32;;;13.20;99.90;;;;;;5066470;28;20040;-65
2022/07/04 01:54:16;;;;;;;14.93;5.10;;;13.20;99.90;;;;;;5065684;28;20891;-65
2022/07/04 01:56:42;;;;;;;8.98;4.40;;;13.20;99.90;;;;;;5057193;28;20041;-67
2022/07/04 01:59:08;;;;;;;11.85;4.85;;;13.20;99.90;;;;;;5055724;28;20037;-67
2022/07/04 02:01:34;;;;;;;12.55;5.05;;;13.20;99.90;;;;;;5056266;28;20075;-66
2022/07/04 02:04:05;;;;;;;12.68;4.75;;;13.20;99.90;;;;;;5064086;28;20446;-66
2022/07/04 02:06:31;;;;;;;7.15;4.65;;;13.20;99.90;;;;;;5056880;28;20057;-66
2022/07/04 02:09:15;;;;;;;8.82;4.88;;;13.20;99.90;;;;;;5060207;28;20124;-66
2022/07/04 02:14:26;;;;;;;11.25;5.18;;;13.10;99.90;;;;;;5040878;28;20483;-65
2022/07/04 02:16:53;;;;;;;7.90;5.32;;;13.10;99.90;;;;;;5059582;28;20101;-67
2022/07/04 02:19:21;;;;;;;11.85;5.57;;;13.20;99.90;;;;;;5048885;28;20064;-66
2022/07/04 02:21:47;;;;;;;8.13;5.35;;;13.10;99.90;;;;;;5053849;28;20041;-65
2022/07/04 02:24:13;;;;;;;9.68;4.90;;;13.10;99.90;;;;;;5057970;28;20064;-66
2022/07/04 02:26:39;;;;;;;14.60;5.53;;;13.10;99.90;;;;;;5060992;28;20035;-66
2022/07/04 02:29:05;;;;;;;9.15;5.13;;;13.10;99.90;;;;;;5062837;28;20072;-66
2022/07/04 02:31:30;;;;;;;10.13;5.45;;;13.10;99.90;;;;;;5064884;28;20037;-65
2022/07/04 02:33:56;;;;;;;7.30;5.25;;;13.10;99.90;;;;;;5058339;28;20136;-65
2022/07/04 02:36:25;;;;;;;11.13;5.88;;;13.10;99.90;;;;;;5059524;28;20037;-66
2022/07/04 02:38:50;;;;;;;8.95;5.30;;;13.10;99.90;;;;;;5065408;28;20044;-66
2022/07/04 02:41:16;;;;;;;14.40;5.63;;;13.20;99.90;;;;;;5060400;28;20037;-66
2022/07/04 02:43:42;;;;;;;9.55;5.63;;;13.20;99.90;;;;;;5060847;28;20036;-66
2022/07/04 02:46:07;;;;;;;10.63;6.38;;;13.20;99.90;;;;;;5063564;28;20041;-66
2022/07/04 02:48:33;;;;;;;10.27;5.80;;;13.20;99.90;;;;;;5065252;28;20045;-67
2022/07/04 02:50:59;;;;;;;12.13;6.53;;;13.20;99.90;;;;;;5068620;28;20068;-65
2022/07/04 02:53:27;;;;;;;8.30;6.10;;;13.20;99.90;;;;;;5035742;28;20040;-66
2022/07/04 02:55:53;;;;;;;12.25;6.45;;;13.20;99.90;;;;;;5064331;28;20044;-65
2022/07/04 02:58:19;;;;;;;9.05;6.50;;;13.20;99.90;;;;;;5062899;28;20052;-65
2022/07/04 03:00:44;;;;;;;11.88;6.60;;;13.20;99.90;;;;;;5056016;28;20044;-65
2022/07/04 03:03:10;;;;;;;13.85;7.55;;;13.20;99.90;;;;;;5055538;28;20055;-66
2022/07/04 03:05:36;;;;;;;11.07;6.97;;;13.30;99.90;;;;;;5065376;28;20052;-65
2022/07/04 03:08:02;;;;;;;13.25;7.70;;;13.30;99.90;;;;;;5054757;28;20048;-65
2022/07/04 03:10:27;;;;;;;9.80;7.50;;;13.30;99.90;;;;;;5061529;28;20040;-66
2022/07/04 03:12:53;;;;;;;10.93;8.07;;;13.30;99.90;;;;;;5062016;28;20502;-65
2022/07/04 03:15:19;;;;;;;14.40;7.55;;;13.30;99.90;;;;;;5064155;28;20040;-66
2022/07/04 03:17:44;;;;;;;12.77;7.93;;;13.30;99.90;;;;;;5063747;28;20079;-66
2022/07/04 03:20:10;;;;;;;16.38;8.00;;;13.30;99.90;;;;;;5061803;28;20044;-65
2022/07/04 03:22:36;;;;;;;10.73;7.50;;;13.30;99.90;;;;;;5063563;28;20040;-67
2022/07/04 03:25:02;;;;;;;9.90;7.18;;;13.30;99.90;;;;;;5055960;28;20037;-65
2022/07/04 03:27:28;;;;;;;11.77;7.63;;;13.30;99.90;;;;;;5067074;28;20063;-66
2022/07/04 03:29:53;;;;;;;11.48;7.50;;;13.30;99.90;;;;;;5062479;28;20056;-67
2022/07/04 03:32:19;;;;;;;11.02;8.05;;;13.30;99.90;;;;;;5068643;28;20044;-66
2022/07/04 03:34:45;;;;;;;15.13;8.30;;;13.30;99.90;;;;;;5061663;28;20036;-66
2022/07/04 03:37:10;;;;;;;11.48;6.72;;;13.30;99.90;;;;;;5059598;28;20067;-65
2022/07/04 03:39:36;;;;;;;10.07;7.30;;;13.30;99.90;;;;;;5045509;28;20040;-66
2022/07/04 03:42:02;;;;;;;13.65;7.60;;;13.30;99.90;;;;;;5061299;28;20394;-66
2022/07/04 03:44:27;;;;;;;12.13;6.72;;;13.30;99.90;;;;;;5066449;28;20040;-67
2022/07/04 03:46:53;;;;;;;14.15;7.30;;;13.30;99.90;;;;;;5053118;28;20037;-65
2022/07/04 03:49:19;;;;;;;14.98;7.63;;;13.30;99.90;;;;;;5064753;28;20453;-66
2022/07/04 03:51:44;;;;;;;11.10;7.50;;;13.40;99.90;;;;;;5065846;28;20078;-65
2022/07/04 03:54:10;;;;;;;10.35;7.00;;;13.30;99.90;;;;;;5035135;28;20489;-66
2022/07/04 03:56:36;;;;;;;12.70;7.00;;;13.30;99.90;;;;;;5056128;28;20044;-65
2022/07/04 03:59:01;;;;;;;12.15;6.93;;;13.30;99.90;;;;;;5039496;28;20044;-66
2022/07/04 04:01:29;;;;;;;10.98;7.60;;;13.40;99.90;;;;;;5055344;28;20036;-66
2022/07/04 04:06:38;;;;;;;15.60;7.20;;;13.40;99.90;;;;;;5064165;28;20379;-65
2022/07/04 04:09:04;;;;;;;12.05;7.22;;;13.30;99.90;;;;;;5057805;28;20048;-67
2022/07/04 04:11:31;;;;;;;11.63;6.57;;;13.40;99.90;;;;;;5053489;28;20076;-65
2022/07/04 04:13:57;;;;;;;9.48;6.35;;;13.40;99.90;;;;;;5054276;28;20082;-66
2022/07/04 04:16:22;;;;;;;11.77;6.88;;;13.50;99.90;;;;;;5060147;28;20039;-65
2022/07/04 04:18:48;;;;;;;11.00;6.80;;;13.40;99.90;;;;;;5058495;28;20052;-66
2022/07/04 04:21:14;;;;;;;14.95;6.90;;;13.40;99.90;;;;;;5062634;28;20048;-65
2022/07/04 04:23:39;;;;;;;10.52;6.75;;;13.40;99.90;;;;;;5054944;28;20039;-67
2022/07/04 04:26:05;;;;;;;16.95;7.35;;;13.40;99.90;;;;;;5066720;28;20040;-67
2022/07/04 04:28:31;;;;;;;12.48;7.95;;;13.50;99.90;;;;;;5062898;28;20118;-66
2022/07/04 04:30:56;;;;;;;14.90;7.22;;;13.50;99.90;;;;;;5060337;28;20349;-66
2022/07/04 04:33:22;;;;;;;14.70;7.78;;;13.50;99.90;;;;;;5055868;28;20049;-65
2022/07/04 04:35:48;;;;;;;13.98;6.95;;;13.60;99.90;;;;;;5054232;28;20448;-66
2022/07/04 04:38:14;;;;;;;19.67;6.68;;;13.60;99.90;;;;;;5062755;28;20044;-65
2022/07/04 04:40:39;;;;;;;11.32;5.97;;;13.60;99.90;;;;;;5064105;28;20502;-68
2022/07/04 04:43:05;;;;;;;10.13;5.85;;;13.70;99.90;;;;;;5060303;28;20049;-67
2022/07/04 04:45:31;;;;;;;11.82;5.55;;;13.70;99.90;;;;;;5062593;28;20040;-66
2022/07/04 04:47:57;;;;;;;9.68;5.85;;;13.80;99.90;;;;;;5060579;28;20037;-65
2022/07/04 04:50:25;;;;;;;9.52;5.20;;;13.90;99.90;;;;;;5060441;28;20049;-66
2022/07/04 04:52:50;;;;;;;;;;;14.00;99.90;;;;;;5070879;28;20039;-66
2022/07/04 04:55:16;;;;;;;10.93;5.32;;;14.00;99.90;;;;;;5062134;28;19920;-67
2022/07/04 04:57:42;;;;;;;12.07;5.50;;;14.00;99.90;;;;;;5057694;28;20569;-66
2022/07/04 05:00:08;;;;;;;12.18;5.70;;;14.10;99.90;;;;;;5063546;28;20112;-66
2022/07/04 05:02:34;;;;;;;12.25;5.88;;;14.20;99.90;;;;;;5066943;28;20601;-65
2022/07/04 05:04:59;;;;;;;9.30;4.75;;;14.20;99.90;;;;;;5067035;28;20059;-66
2022/07/04 05:07:25;;;;;;;9.85;4.85;;;14.20;99.90;;;;;;5063092;28;20048;-66
2022/07/04 05:09:56;;;;;;;10.82;5.22;;;14.20;99.90;;;;;;5058433;28;20517;-66
2022/07/04 05:12:22;;;;;;;13.52;5.88;;;14.00;99.90;;;;;;5062431;28;20052;-65
2022/07/04 05:14:48;;;;;;;11.13;5.10;;;14.40;99.90;;;;;;5065534;28;20390;-66
2022/07/04 05:17:13;;;;;;;9.85;5.32;;;14.40;99.90;;;;;;5060643;28;20569;-69
2022/07/04 05:19:39;;;;;;;9.75;5.25;;;14.50;99.90;;;;;;5069080;28;20032;-66
2022/07/04 05:22:05;;;;;;;17.75;5.40;;;14.60;99.90;;;;;;5064296;28;20040;-67
2022/07/04 05:24:30;;;;;;;10.85;5.43;;;14.70;99.90;;;;;;5060060;28;20560;-65
2022/07/04 05:26:56;;;;;;;13.18;4.93;;;14.80;99.90;;;;;;5070584;28;20049;-68
2022/07/04 05:29:22;;;;;;;9.63;4.75;;;14.80;99.90;;;;;;5064245;28;20045;-66
2022/07/04 05:31:47;;;;;;;9.65;5.15;;;14.90;99.90;;;;;;5064719;28;20425;-65
2022/07/04 05:34:13;;;;;;;9.88;4.57;;;14.90;99.90;;;;;;5065201;28;20471;-66
2022/07/04 05:36:41;;;;;;;10.10;5.03;;;15.00;99.90;;;;;;5057357;28;20584;-66
2022/07/04 05:39:08;;;;;;;7.97;4.97;;;15.10;99.90;;;;;;5066671;28;20043;-67
2022/07/04 05:41:34;;;;;;;8.57;4.72;;;15.20;99.90;;;;;;5063522;28;20139;-65
2022/07/04 05:44:00;;;;;;;16.55;5.32;;;15.20;99.90;;;;;;5067316;28;20119;-64
2022/07/04 05:46:28;;;;;;;8.35;5.10;;;15.20;99.90;;;;;;5058224;28;20041;-66
2022/07/04 05:48:54;;;;;;;12.40;5.65;;;15.30;99.90;;;;;;5054430;28;20081;-67
2022/07/04 05:51:19;;;;;;;10.43;5.00;;;15.30;99.90;;;;;;5065097;28;20082;-66
2022/07/04 05:53:45;;;;;;;11.13;5.28;;;15.40;99.90;;;;;;5063557;28;20554;-66
2022/07/04 05:56:12;;;;;;;8.90;4.72;;;15.50;99.90;;;;;;5069502;28;20130;-66
2022/07/04 05:58:38;;;;;;;8.65;5.07;;;15.60;99.90;;;;;;5062235;28;20029;-65
2022/07/04 06:01:04;;;;;;;10.55;5.18;;;15.60;99.90;;;;;;5056208;28;20091;-66
2022/07/04 06:03:36;;;;;;;10.68;4.88;;;15.80;99.90;;;;;;5056495;28;20110;-66
2022/07/04 06:06:03;;;;;;;8.07;5.03;;;15.80;99.90;;;;;;5055003;28;20328;-65
2022/07/04 06:08:29;;;;;;;9.02;4.97;;;15.80;99.90;;;;;;5053354;28;20056;-65
2022/07/04 06:10:55;;;;;;;15.32;5.18;;;15.80;99.90;;;;;;5047798;28;20143;-65
2022/07/04 06:13:21;;;;;;;9.65;5.22;;;15.90;99.90;;;;;;5063945;28;20041;-68
2022/07/04 06:15:47;;;;;;;10.15;5.05;;;16.10;99.90;;;;;;5060408;28;20050;-66
2022/07/04 06:18:14;;;;;;;9.80;4.80;;;16.40;99.90;;;;;;5059265;28;20084;-64
2022/07/04 06:20:40;;;;;;;10.45;4.25;;;16.80;99.90;;;;;;5069415;28;20041;-66
2022/07/04 06:23:07;;;;;;;11.63;5.15;;;17.20;99.90;;;;;;5064272;28;20082;-67
2022/07/04 06:25:34;;;;;;;10.07;4.00;;;17.30;99.90;;;;;;5053491;28;20483;-66
2022/07/04 06:28:00;;;;;;;6.82;4.55;;;17.30;99.90;;;;;;5053941;28;20041;-65
2022/07/04 06:30:26;;;;;;;9.73;3.67;;;17.30;99.90;;;;;;5060805;28;20501;-66
2022/07/04 06:32:54;;;;;;;7.40;3.92;;;17.30;99.90;;;;;;5065430;28;20502;-67
2022/07/04 06:38:14;;;;;;;9.10;3.85;;;17.40;99.90;;;;;;5054537;28;20469;-65
2022/07/04 06:40:40;;;;;;;15.13;3.60;;;17.50;99.90;;;;;;5057054;28;20058;-66
2022/07/04 06:43:06;;;;;;;10.68;3.70;;;17.60;99.90;;;;;;5059502;28;20110;-65
2022/07/04 06:45:35;;;;;;;10.00;3.20;;;17.60;99.90;;;;;;5063906;28;20041;-65
2022/07/04 06:48:03;;;;;;;9.38;3.30;;;17.70;99.90;;;;;;5059552;28;20041;-65
2022/07/04 06:50:32;;;;;;;11.32;3.50;;;17.80;99.90;;;;;;5070204;28;20037;-66
2022/07/04 06:53:08;;;;;;;8.73;3.00;;;17.90;99.90;;;;;;5056144;28;20033;-66
2022/07/04 06:55:33;;;;;;;8.30;3.40;;;18.10;99.90;;;;;;5058168;28;20036;-66
2022/07/04 06:57:59;;;;;;;11.02;3.00;;;18.10;99.90;;;;;;5064965;28;20379;-65
2022/07/04 07:00:25;;;;;;;9.95;3.45;;;18.10;99.90;;;;;;5056957;28;20056;-67
2022/07/04 07:02:51;;;;;;;11.35;4.10;;;18.30;99.90;;;;;;5055712;28;20055;-67
2022/07/04 07:05:20;;;;;;;10.13;3.35;;;18.30;99.90;;;;;;5065587;28;20490;-66
2022/07/04 07:07:45;;;;;;;9.50;3.58;;;18.40;99.90;;;;;;5055492;28;20120;-66
2022/07/04 07:10:11;;;;;;;10.55;3.70;;;18.50;99.90;;;;;;5053347;28;20464;-65
2022/07/04 07:12:37;;;;;;;12.48;3.55;;;18.50;99.90;;;;;;5054597;28;20044;-66
2022/07/04 07:15:03;;;;;;;7.60;3.08;;;18.60;99.90;;;;;;5058146;28;20041;-66
2022/07/04 07:17:28;;;;;;;15.20;4.25;;;18.70;99.90;;;;;;5068317;28;20047;-65
2022/07/04 07:20:00;;;;;;;8.13;3.33;;;18.80;99.90;;;;;;5060062;28;20398;-67
2022/07/04 07:22:28;;;;;;;9.48;3.70;;;18.90;99.90;;;;;;5066379;28;20040;-66
2022/07/04 07:24:57;;;;;;;12.27;3.75;;;19.10;99.90;;;;;;5064518;28;20507;-66
2022/07/04 07:27:22;;;;;;;10.18;3.30;;;19.30;99.90;;;;;;5059095;28;20049;-66
2022/07/04 07:29:48;;;;;;;9.77;3.40;;;19.40;99.90;;;;;;5064466;28;20041;-65
2022/07/04 07:32:14;;;;;;;6.63;2.85;;;19.40;99.90;;;;;;5066368;28;20124;-67
2022/07/04 07:34:40;;;;;;;7.55;2.83;;;19.40;99.90;;;;;;5064411;28;20453;-67
2022/07/04 07:37:06;;;;;;;7.80;2.97;;;19.30;99.90;;;;;;5059832;28;20391;-66
2022/07/04 07:39:33;;;;;;;6.72;2.50;;;19.20;99.90;;;;;;5051541;28;20055;-66
2022/07/04 07:41:58;;;;;;;6.22;2.38;;;19.10;99.90;;;;;;5040780;28;20124;-66
2022/07/04 07:44:24;;;;;;;7.18;2.67;;;19.00;99.90;;;;;;5054885;28;20039;-67
2022/07/04 07:46:50;;;;;;;6.03;2.58;;;19.00;99.90;;;;;;5064643;28;20115;-66
2022/07/04 07:49:16;;;;;;;8.50;2.88;;;19.00;99.90;;;;;;5054025;28;20044;-67
2022/07/04 07:51:42;;;;;;;8.00;3.25;;;19.10;99.90;;;;;;5070827;28;20083;-66
2022/07/04 07:54:07;;;;;;;11.75;3.55;;;19.40;99.90;;;;;;5067837;28;20467;-67
2022/07/04 07:56:33;;;;;;;10.27;3.22;;;19.50;99.90;;;;;;5053029;28;20057;-66
2022/07/04 07:58:59;;;;;;;7.07;2.85;;;19.60;99.90;;;;;;5060362;28;20040;-66
2022/07/04 08:01:28;;;;;;;8.88;3.53;;;19.50;99.90;;;;;;5067360;28;20411;-67
2022/07/04 08:06:39;;;;;;;5.85;2.53;;;19.40;99.90;;;;;;5060373;28;20134;-66
2022/07/04 08:09:06;;;;;;;9.68;3.40;;;19.20;99.90;;;;;;5069231;28;20152;-66
2022/07/04 08:11:32;;;;;;;9.63;3.08;;;19.10;99.90;;;;;;5068223;28;20041;-67
2022/07/04 08:13:58;;;;;;;8.45;3.35;;;18.90;99.90;;;;;;5057878;28;20568;-66
2022/07/04 08:16:24;;;;;;;7.20;2.75;;;18.80;99.90;;;;;;5044255;28;20044;-67
2022/07/04 08:18:49;;;;;;;10.23;3.13;;;18.70;99.90;;;;;;5065291;28;20082;-66
2022/07/04 08:21:15;;;;;;;13.45;3.20;;;18.60;99.90;;;;;;5061458;28;20041;-66
2022/07/04 08:23:41;;;;;;;9.25;3.10;;;18.60;99.90;;;;;;5062559;28;20049;-66
2022/07/04 08:26:07;;;;;;;10.55;3.38;;;18.60;99.90;;;;;;5069597;28;20037;-66
2022/07/04 08:28:33;;;;;;;7.90;3.58;;;18.50;99.90;;;;;;5056751;28;20071;-66
2022/07/04 08:30:59;;;;;;;10.20;3.25;;;18.50;99.90;;;;;;5053239;28;20131;-65
2022/07/04 08:33:25;;;;;;;8.90;3.53;;;18.50;99.90;;;;;;5052449;28;20124;-65
2022/07/04 08:35:53;;;;;;;10.77;3.45;;;18.60;99.90;;;;;;5067953;28;20043;-66
2022/07/04 08:38:19;;;;;;;9.52;3.40;;;18.80;99.90;;;;;;5059501;28;20120;-66
2022/07/04 08:40:47;;;;;;;8.07;2.88;;;19.20;99.90;;;;;;5055090;28;20150;-66
2022/07/04 08:43:13;;;;;;;;;;;19.50;99.90;;;;;;5065722;28;20041;-65
2022/07/04 08:45:40;;;;;;;5.60;2.35;;;19.60;99.90;;;;;;5065575;28;20301;-66
2022/07/04 08:48:10;;;;;;;5.53;2.47;;;19.70;99.90;;;;;;5063278;28;20047;-67
2022/07/04 08:50:46;;;;;;;5.03;2.33;;;19.70;99.90;;;;;;5066255;28;20044;-65
2022/07/04 08:53:21;;;;;;;6.13;2.30;;;19.80;99.90;;;;;;5059174;28;20041;-65
2022/07/04 08:58:33;;;;;;;7.00;1.80;;;19.80;99.90;;;;;;5052902;28;20060;-65
2022/07/04 09:00:59;;;;;;;5.38;1.98;;;19.80;99.90;;;;;;5067018;28;20064;-66
2022/07/04 09:03:26;;;;;;;8.45;2.40;;;19.90;99.90;;;;;;5064644;28;20418;-67
2022/07/04 09:05:52;;;;;;;4.25;1.95;;;20.00;99.90;;;;;;5065653;28;20549;-65
2022/07/04 09:08:18;;;;;;;3.03;1.70;;;20.10;99.90;;;;;;5061470;28;20080;-66
2022/07/04 09:10:44;;;;;;;6.38;1.70;;;20.30;99.90;;;;;;5056613;28;20487;-65
2022/07/04 09:13:11;;;;;;;4.10;1.60;;;20.50;99.90;;;;;;5064295;28;20060;-65
2022/07/04 09:15:37;;;;;;;3.10;1.33;;;20.70;99.90;;;;;;5064031;28;20115;-65
2022/07/04 09:18:04;;;;;;;2.85;1.50;;;20.80;99.90;;;;;;5055368;28;20041;-65
2022/07/04 09:20:32;;;;;;;6.13;1.63;;;21.00;99.90;;;;;;5058976;28;20036;-66
2022/07/04 09:22:58;;;;;;;4.15;1.50;;;21.10;99.90;;;;;;5056231;28;20051;-66
2022/07/04 09:25:25;;;;;;;5.40;1.50;;;21.20;99.90;;;;;;5068595;28;20516;-67
2022/07/04 09:27:56;;;;;;;3.67;1.30;;;21.20;99.90;;;;;;5057857;28;20075;-66
2022/07/04 09:30:23;;;;;;;3.28;1.20;;;21.30;99.90;;;;;;5053880;28;20048;-67
2022/07/04 09:32:52;;;;;;;4.93;1.77;;;21.40;99.90;;;;;;5068816;28;20042;-67
2022/07/04 09:35:24;;;;;;;3.20;1.30;;;21.50;99.90;;;;;;5062944;28;20033;-66
2022/07/04 09:37:55;;;;;;;4.38;1.45;;;21.50;99.40;;;;;;5056347;28;20044;-65
2022/07/04 09:40:25;;;;;;;3.10;1.27;;;21.40;98.70;;;;;;5066604;28;20110;-66
2022/07/04 09:42:52;;;;;;;1.95;1.17;;;21.30;99.60;;;;;;5071508;28;20091;-67
2022/07/04 09:45:19;;;;;;;4.38;1.40;;;21.20;99.00;;;;;;5067053;28;20041;-66
2022/07/04 09:47:46;;;;;;;8.95;1.42;;;21.10;98.60;;;;;;5066150;28;20076;-66
2022/07/04 09:50:16;;;;;;;3.70;1.40;;;20.90;99.90;;;;;;5060135;28;20443;-66
2022/07/04 09:52:53;;;;;;;2.95;1.20;;;21.00;99.40;;;;;;5055023;28;20037;-66
2022/07/04 09:55:27;;;;;;;7.03;1.60;;;21.10;98.90;;;;;;5058712;28;20144;-66
2022/07/04 09:57:58;;;;;;;5.32;1.60;;;21.20;99.20;;;;;;5058894;28;20508;-65
2022/07/04 10:00:27;;;;;;;3.85;1.50;;;21.30;99.90;;;;;;5056922;28;20564;-66
2022/07/04 10:02:54;;;;;;;4.47;1.60;;;21.40;99.90;;;;;;5061062;28;20045;-66
2022/07/04 10:05:26;;;;;;;2.22;1.30;;;21.40;99.90;;;;;;5064195;28;20059;-66
2022/07/04 10:07:57;;;;;;;5.00;1.25;;;21.50;99.90;;;;;;5073561;28;20040;-66
2022/07/04 10:10:32;;;;;;;2.85;1.58;;;21.80;99.90;;;;;;5062750;28;20067;-65
2022/07/04 10:13:04;;;;;;;2.40;1.40;;;22.10;99.90;;;;;;5067636;28;20048;-66
2022/07/04 10:15:32;;;;;;;4.07;1.50;;;22.30;99.10;;;;;;5066150;28;20048;-66
2022/07/04 10:17:58;;;;;;;4.40;1.52;;;22.40;99.60;;;;;;5074046;28;20487;-66
2022/07/04 10:20:24;;;;;;;4.20;1.67;;;22.30;99.90;;;;;;5059860;28;20080;-66
2022/07/04 10:22:50;;;;;;;2.80;1.35;;;22.30;98.40;;;;;;5077422;28;20470;-65
2022/07/04 10:25:16;;;;;;;3.42;1.70;;;22.20;98.20;;;;;;5067375;28;20143;-65
2022/07/04 10:27:42;;;;;;;5.28;1.63;;;22.30;99.00;;;;;;5069994;28;20047;-66
2022/07/04 10:30:13;;;;;;;4.07;1.20;;;22.50;98.90;;;;;;5068498;28;20048;-66
2022/07/04 10:32:43;;;;;;;5.13;1.58;;;22.50;97.80;;;;;;5075705;28;20047;-65
2022/07/04 10:35:14;;;;;;;4.05;1.73;;;22.60;98.10;;;;;;5070096;28;20044;-66
2022/07/04 10:38:04;;;;;;;6.15;1.58;;;22.80;98.00;;;;;;5079018;28;20044;-65
2022/07/04 10:40:47;;;;;;;4.15;1.38;;;23.10;94.50;;;;;;5071535;28;20041;-67
2022/07/04 10:43:33;;;;;;;3.65;1.23;;;23.30;94.50;;;;;;5061360;28;20078;-67
2022/07/04 10:46:05;;;;;;;5.10;1.70;;;23.30;93.70;;;;;;5067333;28;20094;-66
2022/07/04 10:48:34;;;;;;;5.68;1.50;;;23.40;93.90;;;;;;5067760;28;20048;-64
2022/07/04 10:51:04;;;;;;;6.38;2.03;;;23.40;92.00;;;;;;5070605;28;20132;-66
2022/07/04 10:53:31;;;;;;;4.22;1.30;;;23.30;93.50;;;;;;5076750;28;20094;-67
2022/07/04 10:56:15;;;;;;;3.60;1.38;;;23.30;93.60;;;;;;5076423;28;20040;-65
2022/07/04 10:58:42;;;;;;;3.05;1.30;;;23.60;91.70;;;;;;5075005;28;20044;-64
2022/07/04 11:01:11;;;;;;;2.95;1.20;;;23.80;92.30;;;;;;5079214;28;20051;-66
2022/07/04 11:03:53;;;;;;;3.03;1.20;;;24.00;91.40;;;;;;5080735;28;20442;-66
2022/07/04 11:06:42;;;;;;;3.13;1.40;;;24.30;92.50;;;;;;5071925;28;20556;-66
2022/07/04 11:09:19;;;;;;;1.58;1.17;;;24.60;89.80;;;;;;5058789;28;20056;-67
2022/07/04 11:11:56;;;;;;;2.92;1.30;;;24.70;88.00;;;;;;5064479;28;20033;-66
2022/07/04 11:14:42;;;;;;;4.43;1.38;;;24.80;88.10;;;;;;5070321;28;20055;-66
2022/07/04 11:17:19;;;;;;;3.88;1.20;;;24.40;85.80;;;;;;5053475;28;20076;-66
2022/07/04 11:19:45;;;;;;;3.53;1.48;;;24.00;86.20;;;;;;5050686;28;20117;-66
2022/07/04 11:22:11;;;;;;;6.90;1.33;;;23.30;89.30;;;;;;5070748;28;20044;-66
2022/07/04 11:24:38;;;;;;;2.90;1.20;;;23.10;90.80;;;;;;5058974;28;20037;-68
2022/07/04 11:27:08;;;;;;;5.18;1.20;;;23.40;90.00;;;;;;5050615;28;20051;-67
2022/07/04 11:29:34;;;;;;;2.42;1.08;;;23.50;89.90;;;;;;5056043;28;20045;-68
2022/07/04 11:32:05;;;;;;;4.38;1.13;;;23.80;90.10;;;;;;5054390;28;20045;-68
2022/07/04 11:34:33;;;;;;;4.57;1.10;;;24.10;89.30;;;;;;5063028;28;20444;-67
2022/07/04 11:37:01;;;;;;;3.90;1.15;;;24.40;85.90;;;;;;5070503;28;20045;-68
2022/07/04 11:39:29;;;;;;;3.25;1.20;;;24.70;87.70;;;;;;5070189;28;20052;-68
2022/07/04 11:45:02;;;;;;;2.53;1.30;;;24.80;84.00;;;;;;5065500;28;20044;-68
2022/07/04 11:47:39;;;;;;;4.97;1.10;;;24.80;84.10;;;;;;5064270;28;20051;-67
2022/07/04 11:50:13;;;;;;;3.10;1.30;;;25.10;85.00;;;;;;5063825;28;20052;-69
2022/07/04 11:52:53;;;;;;;2.42;1.00;;;25.10;82.80;;;;;;5068842;28;20040;-68
2022/07/04 11:55:21;;;;;;;2.22;1.20;;;24.80;76.80;;;;;;5055488;28;20044;-68
2022/07/04 11:57:48;;;;;;;;;;;24.60;81.70;;;;;;5071331;28;20051;-69
2022/07/04 12:00:16;;;;;;;4.25;1.38;;;24.70;78.70;;;;;;5059186;28;19921;-67
2022/07/04 12:02:42;;;;;;;6.53;1.33;;;24.60;77.80;;;;;;5064238;28;20075;-68
2022/07/04 12:05:10;;;;;;;2.33;1.10;;;24.60;80.90;;;;;;5068789;28;20051;-68
2022/07/04 12:07:39;;;;;;;1.92;1.15;;;24.80;79.60;;;;;;5069700;28;20037;-67
2022/07/04 12:10:15;;;;;;;6.47;1.60;;;24.80;78.30;;;;;;5061272;28;20136;-68
2022/07/04 12:12:55;;;;;;;2.40;1.20;;;24.80;76.20;;;;;;5067481;28;20051;-68
2022/07/04 12:15:24;;;;;;;4.13;1.10;;;24.80;76.20;;;;;;5065685;28;20049;-67
2022/07/04 12:17:56;;;;;;;3.90;1.35;;;24.80;77.90;;;;;;5051104;28;20049;-68
2022/07/04 12:20:23;;;;;;;3.70;1.20;;;24.70;71.90;;;;;;5067665;28;20040;-68
2022/07/04 12:23:00;;;;;;;4.63;1.40;;;24.30;74.40;;;;;;5061319;28;20080;-68
2022/07/04 12:25:36;;;;;;;2.83;1.17;;;24.30;77.50;;;;;;5071251;28;20072;-68
2022/07/04 12:28:09;;;;;;;1.88;1.08;;;24.40;75.40;;;;;;5071106;28;20045;-68
2022/07/04 12:30:37;;;;;;;2.05;1.20;;;24.40;75.80;;;;;;5063908;28;20044;-67
2022/07/04 12:33:05;;;;;;;5.57;1.75;;;24.40;74.50;;;;;;5061693;28;20487;-68
2022/07/04 12:35:43;;;;;;;5.03;1.40;;;24.30;76.60;;;;;;5064403;28;20051;-69
2022/07/04 12:38:13;;;;;;;3.40;1.20;;;24.10;76.80;;;;;;5052563;28;20041;-68
2022/07/04 12:40:57;;;;;;;3.53;1.17;;;24.10;76.10;;;;;;5054202;28;20052;-69
2022/07/04 12:43:40;;;;;;;4.72;1.48;;;24.10;77.00;;;;;;5051404;28;20052;-68
2022/07/04 12:46:10;;;;;;;4.53;1.40;;;24.20;80.20;;;;;;5067613;28;20052;-68
2022/07/04 12:48:37;;;;;;;4.30;1.30;;;24.40;79.60;;;;;;5074920;28;20044;-67
2022/07/04 12:51:22;;;;;;;5.70;1.58;;;24.70;79.80;;;;;;5073946;28;20040;-68
2022/07/04 12:53:52;;;;;;;6.65;1.50;;;24.70;77.50;;;;;;5063445;28;20502;-68
2022/07/04 12:56:47;;;;;;;2.92;1.17;;;24.90;78.10;;;;;;5070297;28;20045;-68
2022/07/04 12:59:15;;;;;;;4.07;1.33;;;24.60;75.40;;;;;;5061783;28;20052;-68
2022/07/04 13:01:43;;;;;;;8.18;1.55;;;24.30;78.30;;;;;;5074417;28;20062;-69
2022/07/04 13:04:09;;;;;;;2.83;1.17;;;24.40;80.30;;;;;;5067249;28;20162;-68